createdAt,value
2022-11-05T00:00:39.069Z,97692.28
2022-11-05T00:06:00.285Z,97689.94
2022-11-05T00:11:02.686Z,97701.00
2022-11-05T00:16:23.552Z,97695.44
2022-11-05T00:21:44.830Z,97694.75
2022-11-05T00:26:47.153Z,97704.34
2022-11-05T00:31:49.570Z,97715.00
2022-11-05T00:36:52.155Z,97727.88
2022-11-05T00:42:13.213Z,97719.28
2022-11-05T00:47:34.419Z,97727.56
2022-11-05T00:52:55.639Z,97733.72
2022-11-05T00:57:58.447Z,97733.00
2022-11-05T01:03:03.733Z,97743.34
2022-11-05T01:08:06.155Z,97751.97
2022-11-05T01:13:12.970Z,97752.47
2022-11-05T01:18:15.834Z,97759.16
2022-11-05T01:23:18.770Z,97765.56
2022-11-05T01:28:21.432Z,97767.13
2022-11-05T01:33:24.442Z,97768.31
2022-11-05T01:38:26.802Z,97769.25
2022-11-05T01:43:47.501Z,97768.75
2022-11-05T01:48:56.136Z,97776.06
2022-11-05T01:54:06.165Z,97776.19
2022-11-05T01:59:28.954Z,97781.19
2022-11-05T02:04:39.512Z,97780.53
2022-11-05T02:09:53.718Z,97793.25
2022-11-05T02:14:57.701Z,97790.56
2022-11-05T02:20:02.847Z,97785.13
2022-11-05T02:25:20.093Z,97786.63
2022-11-05T02:30:33.462Z,97790.75
2022-11-05T02:36:00.594Z,97787.81
2022-11-05T02:41:09.079Z,97796.31
2022-11-05T02:46:50.866Z,97801.66
2022-11-05T02:51:56.081Z,97802.94
2022-11-05T02:57:00.961Z,97807.22
2022-11-05T03:02:04.648Z,97804.91
2022-11-05T03:07:25.054Z,97802.94
2022-11-05T03:12:30.403Z,97805.81
2022-11-05T03:17:41.999Z,97817.06
2022-11-05T03:23:20.106Z,97815.94
2022-11-05T03:28:27.881Z,97822.56
2022-11-05T03:33:33.770Z,97823.28
2022-11-05T03:38:41.135Z,97835.22
2022-11-05T03:43:49.203Z,97833.00
2022-11-05T03:48:55.380Z,97851.81
2022-11-05T03:54:01.091Z,97847.50
2022-11-05T03:59:06.403Z,97854.56
2022-11-05T04:04:09.958Z,97861.31
2022-11-05T04:09:31.079Z,97876.81
2022-11-05T04:14:33.483Z,97877.78
2022-11-05T04:20:02.638Z,97878.47
2022-11-05T04:25:05.321Z,97888.56
2022-11-05T04:30:20.279Z,97886.94
2022-11-05T04:35:22.842Z,97899.91
2022-11-05T04:40:25.607Z,97901.94
2022-11-05T04:45:30.885Z,97902.69
2022-11-05T04:50:34.318Z,97899.78
2022-11-05T04:55:36.702Z,97909.47
2022-11-05T05:00:39.307Z,97910.97
2022-11-05T05:05:41.813Z,97912.25
2022-11-05T05:10:44.158Z,97932.84
2022-11-05T05:15:46.535Z,97933.06
2022-11-05T05:21:07.504Z,97941.09
2022-11-05T05:26:10.511Z,97935.69
2022-11-05T05:31:12.878Z,97933.69
2022-11-05T05:36:15.286Z,97937.78
2022-11-05T05:41:18.409Z,97949.44
2022-11-05T05:46:20.743Z,97953.13
2022-11-05T05:51:23.094Z,97947.28
2022-11-05T05:56:25.445Z,97958.09
2022-11-05T06:01:27.841Z,97970.28
2022-11-05T06:06:30.279Z,97971.06
2022-11-05T06:11:32.714Z,97986.38
2022-11-05T06:16:35.966Z,97987.81
2022-11-05T06:21:38.609Z,97996.06
2022-11-05T06:26:43.295Z,97992.69
2022-11-05T06:31:45.640Z,98002.81
2022-11-05T06:36:48.009Z,98016.78
2022-11-05T06:42:16.674Z,98025.31
2022-11-05T06:47:12.707Z,98035.59
2022-11-05T06:52:16.489Z,98033.19
2022-11-05T06:57:18.829Z,98042.22
2022-11-05T07:02:21.206Z,98056.69
2022-11-05T07:07:23.650Z,98064.88
2022-11-05T07:12:25.996Z,98075.00
2022-11-05T07:17:28.315Z,98082.41
2022-11-05T07:22:30.730Z,98099.78
2022-11-05T07:27:40.727Z,98097.69
2022-11-05T07:32:43.105Z,98117.81
2022-11-05T07:37:47.707Z,98112.38
2022-11-05T07:42:54.012Z,98112.44
2022-11-05T07:47:59.127Z,98120.16
2022-11-05T07:53:10.781Z,98131.38
2022-11-05T07:58:14.293Z,98146.53
2022-11-05T08:03:18.739Z,98152.06
2022-11-05T08:08:21.694Z,98152.91
2022-11-05T08:13:24.057Z,98158.31
2022-11-05T08:18:32.550Z,98167.34
2022-11-05T08:23:34.906Z,98162.09
2022-11-05T08:28:37.222Z,98169.78
2022-11-05T08:33:39.812Z,98182.56
2022-11-05T08:38:42.258Z,98182.56
2022-11-05T08:43:44.605Z,98187.16
2022-11-05T08:48:47.025Z,98192.22
2022-11-05T08:53:49.446Z,98194.00
2022-11-05T08:58:51.855Z,98204.63
2022-11-05T09:03:54.244Z,98207.78
2022-11-05T09:08:56.838Z,98215.69
2022-11-05T09:13:59.222Z,98223.38
2022-11-05T09:19:03.430Z,98222.97
2022-11-05T09:24:06.171Z,98225.72
2022-11-05T09:29:14.068Z,98227.41
2022-11-05T09:34:16.828Z,98229.03
2022-11-05T09:39:19.186Z,98231.88
2022-11-05T09:44:38.049Z,98238.25
2022-11-05T09:49:44.462Z,98236.69
2022-11-05T09:54:50.244Z,98241.03
2022-11-05T09:59:57.158Z,98247.81
2022-11-05T10:05:10.007Z,98259.53
2022-11-05T10:10:30.689Z,98259.91
2022-11-05T10:15:39.239Z,98270.75
2022-11-05T10:20:42.646Z,98278.13
2022-11-05T10:25:48.665Z,98284.69
2022-11-05T10:31:00.531Z,98288.69
2022-11-05T10:36:10.240Z,98293.94
2022-11-05T10:41:21.618Z,98296.13
2022-11-05T10:46:53.860Z,98287.09
2022-11-05T10:52:03.932Z,98298.38
2022-11-05T10:57:30.861Z,98289.44
2022-11-05T11:02:36.241Z,98291.63
2022-11-05T11:07:39.126Z,98297.41
2022-11-05T11:12:43.786Z,98297.28
2022-11-05T11:17:46.263Z,98300.91
2022-11-05T11:23:05.879Z,98305.56
2022-11-05T11:28:20.265Z,98301.41
2022-11-05T11:33:27.360Z,98300.91
2022-11-05T11:38:36.358Z,98295.63
2022-11-05T11:43:43.661Z,98304.84
2022-11-05T11:48:48.194Z,98303.63
2022-11-05T11:53:50.651Z,98314.84
2022-11-05T11:58:55.206Z,98313.94
2022-11-05T12:04:24.765Z,98306.69
2022-11-05T12:09:45.997Z,98301.00
2022-11-05T12:14:48.302Z,98301.16
2022-11-05T12:20:18.170Z,98289.84
2022-11-05T12:25:27.654Z,98291.53
2022-11-05T12:30:46.856Z,98283.75
2022-11-05T12:35:57.940Z,98287.06
2022-11-05T12:41:19.160Z,98291.78
2022-11-05T12:46:34.862Z,98292.53
2022-11-05T12:51:52.298Z,98288.94
2022-11-05T12:57:01.034Z,98295.78
2022-11-05T13:02:20.467Z,98301.19
2022-11-05T13:07:34.072Z,98305.16
2022-11-05T13:12:40.964Z,98310.06
2022-11-05T13:17:55.290Z,98306.72
2022-11-05T13:23:19.010Z,98311.41
2022-11-05T13:28:28.057Z,98312.78
2022-11-05T13:33:40.245Z,98313.94
2022-11-05T13:39:06.991Z,98314.19
2022-11-05T13:44:51.865Z,98317.75
2022-11-05T13:50:21.329Z,98312.91
2022-11-05T13:55:32.586Z,98316.97
2022-11-05T14:00:57.202Z,98317.41
2022-11-05T14:06:10.247Z,98317.47
2022-11-05T14:11:33.069Z,98314.03
2022-11-05T14:17:14.249Z,98317.25
2022-11-05T14:22:48.940Z,98320.41
2022-11-05T14:27:54.332Z,98315.34
2022-11-05T14:33:04.799Z,98317.47
2022-11-05T14:38:23.789Z,98333.75
2022-11-05T14:43:29.171Z,98328.75
2022-11-05T14:48:35.418Z,98341.91
2022-11-05T14:53:40.376Z,98337.44
2022-11-05T14:58:44.583Z,98343.78
2022-11-05T15:04:19.709Z,98351.13
2022-11-05T15:09:33.583Z,98344.25
2022-11-05T15:14:52.939Z,98355.94
2022-11-05T15:20:01.783Z,98359.41
2022-11-05T15:25:14.515Z,98365.06
2022-11-05T15:30:20.289Z,98358.94
2022-11-05T15:35:28.866Z,98359.38
2022-11-05T15:40:36.020Z,98363.22
2022-11-05T15:45:38.683Z,98355.44
2022-11-05T15:50:41.718Z,98351.34
2022-11-05T15:55:55.758Z,98357.53
2022-11-05T16:00:58.335Z,98356.44
2022-11-05T16:06:02.223Z,98362.00
2022-11-05T16:11:04.789Z,98366.06
2022-11-05T16:16:16.092Z,98385.53
2022-11-05T16:21:22.706Z,98383.94
2022-11-05T16:32:14.689Z,98385.41
2022-11-05T16:37:20.712Z,98394.47
2022-11-05T16:42:23.071Z,98397.16
2022-11-05T16:47:26.462Z,98397.56
2022-11-05T16:52:29.093Z,98395.81
2022-11-05T16:57:33.105Z,98396.00
2022-11-05T17:02:35.648Z,98403.03
2022-11-05T17:07:41.375Z,98420.47
2022-11-05T17:12:44.138Z,98408.09
2022-11-05T17:17:47.034Z,98418.84
2022-11-05T17:22:49.393Z,98414.44
2022-11-05T17:27:52.292Z,98417.13
2022-11-05T17:32:54.765Z,98420.94
2022-11-05T17:37:57.468Z,98431.16
2022-11-05T17:42:59.925Z,98429.63
2022-11-05T17:48:05.780Z,98434.00
2022-11-05T17:53:08.492Z,98434.03
2022-11-05T17:58:11.491Z,98434.13
2022-11-05T18:03:15.247Z,98452.09
2022-11-05T18:08:17.841Z,98450.09
2022-11-05T18:13:20.190Z,98459.81
2022-11-05T18:18:22.948Z,98463.44
2022-11-05T18:23:25.613Z,98470.75
2022-11-05T18:28:31.091Z,98472.53
2022-11-05T18:33:33.601Z,98472.97
2022-11-05T18:38:36.096Z,98482.03
2022-11-05T18:43:38.674Z,98472.25
2022-11-05T18:48:41.252Z,98480.16
2022-11-05T18:53:43.635Z,98467.94
2022-11-05T18:58:46.756Z,98459.50
2022-11-05T19:03:51.334Z,98451.81
2022-11-05T19:08:55.211Z,98454.84
2022-11-05T19:13:57.570Z,98461.56
2022-11-05T19:19:01.890Z,98449.66
2022-11-05T19:24:04.614Z,98464.97
2022-11-05T19:29:07.223Z,98457.41
2022-11-05T19:34:09.943Z,98451.34
2022-11-05T19:39:14.392Z,98450.28
2022-11-05T19:44:16.895Z,98455.28
2022-11-05T19:49:19.317Z,98461.00
2022-11-05T19:54:21.860Z,98459.59
2022-11-05T19:59:24.343Z,98462.13
2022-11-05T20:04:26.737Z,98455.44
2022-11-05T20:09:29.110Z,98465.81
2022-11-05T20:14:31.446Z,98470.53
2022-11-05T20:19:33.830Z,98475.50
2022-11-05T20:24:36.571Z,98484.34
2022-11-05T20:29:39.310Z,98485.72
2022-11-05T20:34:42.131Z,98485.78
2022-11-05T20:39:44.532Z,98482.94
2022-11-05T20:44:46.894Z,98488.41
2022-11-05T20:49:49.268Z,98484.59
2022-11-05T20:54:53.648Z,98491.91
2022-11-05T20:59:56.045Z,98490.38
2022-11-05T21:04:58.626Z,98490.78
2022-11-05T21:10:00.953Z,98474.59
2022-11-05T21:15:03.530Z,98477.69
2022-11-05T21:20:06.413Z,98473.81
2022-11-05T21:25:09.990Z,98472.28
2022-11-05T21:30:13.140Z,98476.94
2022-11-05T21:35:16.088Z,98480.78
2022-11-05T21:40:18.504Z,98479.25
2022-11-05T21:45:20.867Z,98483.09
2022-11-05T21:50:43.694Z,98478.47
2022-11-05T21:56:04.821Z,98479.25
2022-11-05T22:01:07.359Z,98473.81
2022-11-05T22:06:10.330Z,98472.69
2022-11-05T22:11:12.695Z,98469.22
2022-11-05T22:16:15.054Z,98477.69
2022-11-05T22:21:18.723Z,98475.31
2022-11-05T22:26:21.305Z,98466.28
2022-11-05T22:31:23.738Z,98472.63
2022-11-05T22:36:26.210Z,98463.75
2022-11-05T22:41:29.138Z,98466.00
2022-11-05T22:46:31.549Z,98462.50
2022-11-05T22:51:35.722Z,98457.84
2022-11-05T22:56:40.370Z,98451.13
2022-11-05T23:01:44.920Z,98454.19
2022-11-05T23:07:06.235Z,98445.38
2022-11-05T23:12:20.567Z,98441.94
2022-11-05T23:17:42.214Z,98441.78
2022-11-05T23:23:03.079Z,98430.84
2022-11-05T23:28:10.005Z,98449.50
2022-11-05T23:33:16.841Z,98429.72
2022-11-05T23:38:34.258Z,98443.41
2022-11-05T23:43:55.152Z,98438.97
2022-11-05T23:48:57.553Z,98424.34
2022-11-05T23:53:59.888Z,98429.69
2022-11-05T23:59:02.302Z,98420.13
